Time;durP1;ratioP1;P1;durP2;ratioP2;P2;SDS_P1;SDS_P2;PMS_P1;PMS_P2;Temp;Humidity;BMP_temperature;BMP_pressure;BME280_temperature;BME280_humidity;BME280_pressure;Samples;Min_cycle;Max_cycle;Signal;HPM_P1;HPM_P2
2021/01/21 00:00:21;;;;;;;1.33;0.20;;;;;;;7.64;100.00;97758.59;1946518;74;26135;-78
2021/01/21 00:02:51;;;;;;;0.77;0.30;;;;;;;7.72;100.00;97772.88;1946565;74;26159;-77
2021/01/21 00:05:21;;;;;;;0.37;0.10;;;;;;;7.67;100.00;97779.18;1946600;73;26143;-77
2021/01/21 00:07:51;;;;;;;1.47;0.20;;;;;;;7.90;100.00;97788.69;1942503;74;26328;-77
2021/01/21 00:10:21;;;;;;;0.27;0.27;;;;;;;7.60;100.00;97805.98;1939680;74;26539;-79
2021/01/21 00:12:51;;;;;;;0.20;0.20;;;;;;;7.59;100.00;97820.94;1946803;74;26669;-78
2021/01/21 00:15:21;;;;;;;0.23;0.20;;;;;;;7.59;100.00;97833.36;1946714;73;26327;-78
2021/01/21 00:17:51;;;;;;;0.20;0.10;;;;;;;7.51;100.00;97852.78;1946652;74;26636;-78
2021/01/21 00:20:21;;;;;;;0.37;0.37;;;;;;;7.48;100.00;97860.36;1946800;74;26743;-77
2021/01/21 00:22:51;;;;;;;0.30;0.30;;;;;;;7.42;100.00;97881.02;1946741;74;26307;-78
2021/01/21 00:25:21;;;;;;;0.20;0.20;;;;;;;7.41;100.00;97884.92;1946764;73;26578;-78
2021/01/21 00:27:51;;;;;;;1.43;0.30;;;;;;;7.47;100.00;97898.20;1946707;74;26132;-78
2021/01/21 00:30:23;;;;;;;0.50;0.30;;;;;;;7.38;100.00;97891.94;1946742;74;26658;-77
2021/01/21 00:32:53;;;;;;;0.47;0.30;;;;;;;7.39;100.00;97905.98;1946486;74;26135;-78
2021/01/21 00:35:25;;;;;;;1.90;0.50;;;;;;;7.21;100.00;97898.40;1946773;74;26127;-77
2021/01/21 00:37:54;;;;;;;0.53;0.30;;;;;;;7.12;100.00;97916.15;1946524;74;26198;-78
2021/01/21 00:40:24;;;;;;;0.83;0.40;;;;;;;7.02;100.00;97939.97;1946663;74;26558;-78
2021/01/21 00:42:54;;;;;;;0.67;0.40;;;;;;;7.06;100.00;97944.50;1946755;73;26519;-77
2021/01/21 00:45:24;;;;;;;0.87;0.30;;;;;;;6.95;100.00;97943.27;1946832;74;26256;-77
2021/01/21 00:47:54;;;;;;;0.83;0.40;;;;;;;6.94;100.00;97944.41;1946852;74;26262;-77
2021/01/21 00:50:24;;;;;;;0.87;0.40;;;;;;;6.99;100.00;97966.86;1946697;74;26182;-77
2021/01/21 00:52:54;;;;;;;0.30;0.30;;;;;;;6.82;100.00;97966.37;1946778;74;26140;-77
2021/01/21 00:55:27;;;;;;;0.67;0.40;;;;;;;6.96;100.00;97977.19;1946900;73;26251;-77
2021/01/21 00:57:57;;;;;;;0.57;0.57;;;;;;;6.84;100.00;97995.27;1946918;73;26187;-77
2021/01/21 01:00:26;;;;;;;0.50;0.40;;;;;;;6.82;100.00;97998.09;1946763;73;26305;-77
2021/01/21 01:02:56;;;;;;;0.20;0.20;;;;;;;6.74;100.00;98003.89;1946614;74;26146;-78
2021/01/21 01:05:26;;;;;;;1.00;0.30;;;;;;;6.77;100.00;98025.85;1946664;74;26123;-77
2021/01/21 01:07:56;;;;;;;0.30;0.23;;;;;;;6.62;100.00;98026.39;1946644;74;26190;-77
2021/01/21 01:10:26;;;;;;;0.27;0.20;;;;;;;6.68;100.00;98049.31;1949670;73;26212;-77
2021/01/21 01:12:56;;;;;;;0.60;0.30;;;;;;;6.74;100.00;98067.89;1949760;73;26193;-77
2021/01/21 01:15:29;;;;;;;0.57;0.57;;;;;;;6.67;100.00;98085.52;1950086;73;26167;-78
2021/01/21 01:17:58;;;;;;;2.60;0.83;;;;;;;6.60;100.00;98092.89;1949988;73;26164;-78
2021/01/21 01:20:29;;;;;;;1.03;0.40;;;;;;;6.58;100.00;98091.61;1949069;73;26677;-78
2021/01/21 01:22:59;;;;;;;0.63;0.30;;;;;;;6.66;100.00;98101.25;1948788;73;26171;-78
2021/01/21 01:25:29;;;;;;;0.40;0.40;;;;;;;6.51;100.00;98111.95;1948688;73;26144;-76
2021/01/21 01:28:00;;;;;;;1.00;0.30;;;;;;;6.69;100.00;98130.92;1949159;73;26218;-76
2021/01/21 01:30:30;;;;;;;1.13;0.40;;;;;;;6.57;100.00;98143.19;1949796;73;26596;-76
2021/01/21 01:33:01;;;;;;;1.67;0.40;;;;;;;6.47;100.00;98161.42;1949743;73;26594;-77
2021/01/21 01:35:30;;;;;;;1.33;0.37;;;;;;;6.55;100.00;98164.74;1949314;73;26198;-76
2021/01/21 01:38:01;;;;;;;0.87;0.57;;;;;;;6.50;100.00;98167.69;1949177;73;26543;-76
2021/01/21 01:40:31;;;;;;;0.53;0.40;;;;;;;6.37;100.00;98179.68;1948963;73;26144;-76
2021/01/21 01:43:01;;;;;;;1.13;0.70;;;;;;;6.38;100.00;98177.95;1950014;73;26183;-77
2021/01/21 01:45:30;;;;;;;1.07;0.60;;;;;;;6.32;100.00;98191.67;1949887;73;26156;-76
2021/01/21 01:48:00;;;;;;;0.60;0.57;;;;;;;6.42;100.00;98209.04;1949843;73;26203;-76
2021/01/21 01:50:31;;;;;;;2.07;0.80;;;;;;;6.32;100.00;98216.48;1949073;73;26148;-76
2021/01/21 01:53:01;;;;;;;1.50;0.83;;;;;;;6.27;100.00;98215.25;1950058;73;26246;-76
2021/01/21 01:55:31;;;;;;;1.70;0.90;;;;;;;6.16;100.00;98225.52;1949987;73;26222;-76
2021/01/21 01:58:03;;;;;;;3.57;0.93;;;;;;;6.17;100.00;98231.25;1949937;73;26263;-76
2021/01/21 02:00:33;;;;;;;1.00;0.90;;;;;;;5.96;100.00;98254.45;1950004;73;26175;-76
2021/01/21 02:03:04;;;;;;;0.83;0.70;;;;;;;6.00;100.00;98260.95;1949949;73;26200;-76
2021/01/21 02:05:34;;;;;;;2.40;1.10;;;;;;;5.86;100.00;98266.55;1949941;73;26183;-76
2021/01/21 02:08:04;;;;;;;1.27;1.10;;;;;;;5.93;100.00;98277.13;1949422;73;26120;-76
2021/01/21 02:10:34;;;;;;;3.73;1.47;;;;;;;5.90;100.00;98281.91;1949634;73;26235;-76
2021/01/21 02:13:11;;;;;;;1.73;1.27;;;;;;;5.72;100.00;98293.93;1950003;73;26160;-77
2021/01/21 02:16:03;;;;;;;1.20;1.10;;;;;;;5.80;100.00;98297.30;1950095;73;26140;-77
2021/01/21 02:18:37;;;;;;;2.03;1.60;;;;;;;5.78;100.00;98298.16;1949891;73;26253;-76
2021/01/21 02:21:40;;;;;;;2.53;1.63;;;;;;;5.69;100.00;98313.84;1949860;73;26655;-76
2021/01/21 02:25:03;;;;;;;3.20;1.70;;;;;;;5.69;100.00;98315.22;1949763;73;26293;-77
2021/01/21 02:27:37;;;;;;;1.70;1.57;;;;;;;5.69;100.00;98331.75;1950132;73;26607;-76
2021/01/21 02:30:13;;;;;;;1.83;1.67;;;;;;;5.76;100.00;98339.80;1949858;73;26265;-78
2021/01/21 02:32:57;;;;;;;3.07;1.93;;;;;;;5.59;100.00;98336.94;1950064;73;26642;-77
2021/01/21 02:35:28;;;;;;;2.20;1.63;;;;;;;5.69;100.00;98338.63;1950136;73;26186;-76
2021/01/21 02:38:00;;;;;;;3.70;1.80;;;;;;;5.67;100.00;98357.39;1949312;73;26248;-76
2021/01/21 02:40:30;;;;;;;4.50;1.97;;;;;;;5.60;100.00;98366.67;1949967;73;26164;-76
2021/01/21 02:43:00;;;;;;;3.43;1.80;;;;;;;5.58;100.00;98376.61;1949897;73;26673;-76
2021/01/21 02:45:30;;;;;;;2.70;1.53;;;;;;;5.68;100.00;98382.43;1950035;73;26168;-77
2021/01/21 02:48:02;;;;;;;4.77;1.70;;;;;;;5.58;100.00;98394.50;1949888;73;26293;-76
2021/01/21 02:50:32;;;;;;;2.33;1.70;;;;;;;5.60;100.00;98398.33;1949968;73;26242;-76
2021/01/21 02:53:03;;;;;;;2.63;1.40;;;;;;;5.61;100.00;98395.80;1949421;73;26242;-76
2021/01/21 02:55:36;;;;;;;1.87;1.60;;;;;;;5.51;100.00;98406.52;1949902;73;26136;-76
2021/01/21 02:58:11;;;;;;;2.30;1.70;;;;;;;5.44;100.00;98410.25;1949979;73;26241;-76
2021/01/21 03:00:42;;;;;;;1.83;1.40;;;;;;;5.44;100.00;98414.38;1950099;73;26248;-76
2021/01/21 03:03:15;;;;;;;1.97;1.50;;;;;;;5.43;100.00;98425.16;1949948;73;26257;-76
2021/01/21 03:05:47;;;;;;;2.73;1.40;;;;;;;5.48;100.00;98431.34;1949327;73;26156;-76
2021/01/21 03:08:18;;;;;;;3.07;1.57;;;;;;;5.41;100.00;98434.27;1949987;73;26220;-76
2021/01/21 03:10:49;;;;;;;1.37;1.27;;;;;;;5.37;100.00;98429.14;1949736;73;26745;-76
2021/01/21 03:13:19;;;;;;;2.50;1.43;;;;;;;5.48;100.00;98437.41;1946551;74;26208;-76
2021/01/21 03:15:49;;;;;;;2.27;1.37;;;;;;;5.42;100.00;98446.92;1946557;74;26243;-76
2021/01/21 03:18:19;;;;;;;4.87;2.23;;;;;;;5.40;100.00;98447.78;1946597;73;26163;-76
2021/01/21 03:20:48;;;;;;;3.50;1.53;;;;;;;5.38;100.00;98453.61;1946637;74;26196;-76
2021/01/21 03:23:19;;;;;;;4.37;1.40;;;;;;;5.38;100.00;98456.37;1946579;73;26273;-77
2021/01/21 03:25:49;;;;;;;3.70;1.47;;;;;;;5.44;100.00;98450.98;1946719;74;26182;-76
2021/01/21 03:28:19;;;;;;;3.23;1.40;;;;;;;5.34;100.00;98470.49;1946665;74;26701;-76
2021/01/21 03:30:49;;;;;;;2.30;1.43;;;;;;;5.31;100.00;98473.03;1946612;74;26710;-76
2021/01/21 03:33:19;;;;;;;4.87;1.83;;;;;;;5.38;100.00;98481.14;1946608;74;26174;-77
2021/01/21 03:35:49;;;;;;;3.27;1.47;;;;;;;5.28;100.00;98486.86;1946542;74;26178;-77
2021/01/21 03:38:19;;;;;;;4.13;1.70;;;;;;;5.30;100.00;98488.75;1946639;74;26178;-78
2021/01/21 03:40:49;;;;;;;11.17;1.93;;;;;;;5.24;100.00;98494.09;1946733;74;26197;-77
2021/01/21 03:43:19;;;;;;;3.03;1.70;;;;;;;5.32;100.00;98499.44;1946738;74;26257;-77
2021/01/21 03:45:49;;;;;;;3.23;1.30;;;;;;;5.19;100.00;98507.14;1946713;74;26327;-77
2021/01/21 03:48:19;;;;;;;4.70;1.50;;;;;;;5.27;100.00;98506.41;1946921;74;26186;-77
2021/01/21 03:50:50;;;;;;;2.93;1.40;;;;;;;5.22;100.00;98514.21;1947074;74;26172;-76
2021/01/21 03:53:20;;;;;;;4.07;1.40;;;;;;;5.27;100.00;98511.92;1946882;74;26241;-77
2021/01/21 03:55:50;;;;;;;3.07;1.40;;;;;;;5.30;100.00;98520.95;1946897;74;26591;-76
2021/01/21 03:58:20;;;;;;;4.93;1.43;;;;;;;5.14;100.00;98524.56;1946924;74;26213;-76
2021/01/21 04:00:50;;;;;;;4.10;1.70;;;;;;;5.15;100.00;98531.70;1947017;74;26316;-77
2021/01/21 04:03:20;;;;;;;4.97;1.57;;;;;;;5.11;100.00;98531.25;1946895;74;26582;-76
2021/01/21 04:05:50;;;;;;;3.73;1.60;;;;;;;5.21;100.00;98534.62;1946866;74;26225;-76
2021/01/21 04:08:20;;;;;;;2.33;1.30;;;;;;;5.10;100.00;98538.69;1947006;73;26143;-76
2021/01/21 04:10:50;;;;;;;3.57;1.73;;;;;;;5.21;100.00;98545.63;1946881;73;26764;-76
2021/01/21 04:13:21;;;;;;;3.30;1.33;;;;;;;5.09;100.00;98537.08;1946984;74;26637;-77
2021/01/21 04:15:51;;;;;;;2.37;1.10;;;;;;;5.07;100.00;98541.23;1946926;73;26594;-76
2021/01/21 04:18:21;;;;;;;3.87;1.30;;;;;;;5.14;100.00;98541.08;1946983;74;26119;-76
2021/01/21 04:20:51;;;;;;;4.70;1.60;;;;;;;5.11;100.00;98554.08;1946927;74;26144;-76
2021/01/21 04:23:21;;;;;;;4.57;1.40;;;;;;;5.02;100.00;98560.03;1946920;73;26155;-77
2021/01/21 04:25:51;;;;;;;3.07;1.23;;;;;;;5.00;100.00;98562.29;1946854;74;26224;-77
2021/01/21 04:28:21;;;;;;;2.30;1.00;;;;;;;5.02;100.00;98563.59;1947027;74;26574;-76
2021/01/21 04:30:51;;;;;;;4.27;1.30;;;;;;;5.17;100.00;98569.38;1946931;73;26566;-76
2021/01/21 04:33:20;;;;;;;3.53;1.10;;;;;;;5.19;100.00;98578.68;1947016;74;26171;-76
2021/01/21 04:35:50;;;;;;;2.03;1.23;;;;;;;5.19;100.00;98579.50;1947089;74;26211;-76
2021/01/21 04:38:20;;;;;;;3.53;1.23;;;;;;;5.06;100.00;98589.94;1946926;73;26194;-76
2021/01/21 04:40:50;;;;;;;1.23;0.90;;;;;;;5.04;100.00;98595.77;1946967;74;26168;-76
2021/01/21 04:43:20;;;;;;;2.77;1.10;;;;;;;5.18;100.00;98601.25;1945799;73;26128;-76
2021/01/21 04:45:50;;;;;;;4.10;1.00;;;;;;;5.24;100.00;98593.72;1946888;74;26676;-77
2021/01/21 04:48:20;;;;;;;1.33;0.90;;;;;;;5.01;100.00;98597.72;1946963;74;26587;-77
2021/01/21 04:50:50;;;;;;;2.30;1.03;;;;;;;5.05;100.00;98597.92;1946957;74;26197;-76
2021/01/21 04:53:23;;;;;;;2.30;1.00;;;;;;;5.09;100.00;98602.28;1946887;73;26140;-77
2021/01/21 04:55:57;;;;;;;1.90;0.80;;;;;;;5.00;100.00;98610.42;1946805;74;26224;-76
2021/01/21 04:58:31;;;;;;;2.50;1.13;;;;;;;4.99;100.00;98612.36;1946909;74;26132;-76
2021/01/21 05:01:02;;;;;;;2.83;1.40;;;;;;;5.00;100.00;98604.37;1934377;72;928452;-74
2021/01/21 05:03:32;;;;;;;4.77;0.80;;;;;;;5.03;100.00;98604.31;1946872;73;26148;-74
2021/01/21 05:06:03;;;;;;;2.30;1.10;;;;;;;5.06;100.00;98609.20;1946918;74;26591;-74
2021/01/21 05:08:33;;;;;;;2.57;1.07;;;;;;;5.06;100.00;98611.94;1946883;74;26137;-75
2021/01/21 05:11:03;;;;;;;1.87;0.87;;;;;;;5.01;100.00;98609.28;1946918;74;26150;-74
2021/01/21 05:13:33;;;;;;;1.93;0.80;;;;;;;5.10;100.00;98610.22;1950296;73;26257;-75
2021/01/21 05:16:03;;;;;;;3.03;0.93;;;;;;;5.20;100.00;98615.53;1950201;73;26222;-75
2021/01/21 05:18:36;;;;;;;2.27;0.70;;;;;;;5.12;100.00;98619.55;1950412;73;26152;-76
2021/01/21 05:21:07;;;;;;;3.93;1.10;;;;;;;5.11;100.00;98625.61;1950395;73;26242;-76
2021/01/21 05:23:38;;;;;;;3.47;0.80;;;;;;;5.10;100.00;98631.41;1950239;73;26748;-76
2021/01/21 05:26:08;;;;;;;4.67;1.30;;;;;;;5.14;100.00;98635.18;1950250;73;26673;-75
2021/01/21 05:28:39;;;;;;;2.27;0.70;;;;;;;5.18;100.00;98643.91;1950255;73;26190;-75
2021/01/21 05:31:10;;;;;;;4.57;1.00;;;;;;;5.28;100.00;98641.52;1950268;73;26172;-75
2021/01/21 05:33:41;;;;;;;1.60;0.80;;;;;;;5.21;100.00;98646.63;1950335;73;26222;-75
2021/01/21 05:36:13;;;;;;;3.40;0.67;;;;;;;5.30;100.00;98652.50;1950379;73;26646;-75
2021/01/21 05:38:45;;;;;;;2.70;0.70;;;;;;;5.38;100.00;98651.80;1950348;73;26227;-75
2021/01/21 05:41:16;;;;;;;2.30;0.50;;;;;;;5.43;100.00;98668.19;1949338;73;26172;-75
2021/01/21 05:43:49;;;;;;;1.50;0.70;;;;;;;5.37;100.00;98663.92;1950352;73;26230;-75
2021/01/21 05:46:20;;;;;;;2.47;0.80;;;;;;;5.25;100.00;98663.60;1950243;73;26293;-75
2021/01/21 05:48:51;;;;;;;3.00;1.10;;;;;;;5.23;100.00;98660.32;1950294;73;26168;-75
2021/01/21 05:51:22;;;;;;;4.00;0.60;;;;;;;5.35;100.00;98654.31;1950088;73;26154;-75
2021/01/21 05:53:54;;;;;;;2.60;0.87;;;;;;;5.31;100.00;98654.11;1949668;73;26217;-75
2021/01/21 05:56:26;;;;;;;4.63;1.00;;;;;;;5.23;100.00;98657.57;1950141;73;26221;-75
2021/01/21 05:58:57;;;;;;;3.93;1.03;;;;;;;5.40;100.00;98647.34;1949842;73;26152;-75
2021/01/21 06:01:27;;;;;;;3.60;1.47;;;;;;;5.36;100.00;98647.70;1949462;73;26160;-75
2021/01/21 06:03:58;;;;;;;3.50;1.00;;;;;;;5.31;100.00;98643.66;1950084;73;26160;-74
2021/01/21 06:06:28;;;;;;;3.13;0.83;;;;;;;5.23;100.00;98639.69;1950131;73;26190;-74
2021/01/21 06:08:58;;;;;;;5.80;0.90;;;;;;;5.36;100.00;98640.81;1950312;73;26624;-75
2021/01/21 06:11:30;;;;;;;3.10;0.60;;;;;;;5.50;100.00;98645.77;1950201;73;26163;-74
2021/01/21 06:14:01;;;;;;;2.43;1.03;;;;;;;5.46;100.00;98645.58;1947825;72;26219;-73
2021/01/21 06:16:31;;;;;;;3.57;1.30;;;;;;;5.34;100.00;98637.02;1946992;74;26201;-74
2021/01/21 06:19:02;;;;;;;2.27;0.87;;;;;;;5.52;100.00;98646.86;1946897;74;26583;-75
2021/01/21 06:21:36;;;;;;;4.93;0.90;;;;;;;5.38;100.00;98646.84;1946903;74;26139;-75
2021/01/21 06:24:09;;;;;;;2.87;0.70;;;;;;;5.40;100.00;98650.91;1946882;74;26646;-75
2021/01/21 06:26:43;;;;;;;4.63;0.90;;;;;;;5.39;100.00;98654.78;1946840;74;26240;-75
2021/01/21 06:29:16;;;;;;;2.70;0.93;;;;;;;5.43;100.00;98666.81;1946889;74;26221;-74
2021/01/21 06:31:51;;;;;;;2.53;0.70;;;;;;;5.60;100.00;98668.17;1946868;74;26216;-74
2021/01/21 06:34:25;;;;;;;4.10;0.57;;;;;;;5.52;100.00;98678.52;1946936;74;26208;-75
2021/01/21 06:36:59;;;;;;;4.83;0.70;;;;;;;5.53;100.00;98670.48;1946872;74;26147;-75
2021/01/21 06:39:32;;;;;;;1.43;0.70;;;;;;;5.73;100.00;98668.17;1946967;74;26138;-75
2021/01/21 06:42:03;;;;;;;2.97;0.67;;;;;;;5.61;100.00;98668.39;1946961;73;26134;-75
2021/01/21 06:44:33;;;;;;;1.30;0.63;;;;;;;5.66;100.00;98668.30;1947031;74;26700;-75
2021/01/21 06:47:04;;;;;;;2.57;0.77;;;;;;;5.72;100.00;98671.22;1946791;74;26637;-75
2021/01/21 06:49:34;;;;;;;2.17;0.90;;;;;;;5.57;100.00;98678.39;1946851;74;26213;-75
2021/01/21 06:52:05;;;;;;;2.53;0.77;;;;;;;5.73;100.00;98674.23;1946845;74;26139;-75
2021/01/21 06:54:37;;;;;;;2.27;0.60;;;;;;;5.84;100.00;98686.66;1946852;74;26587;-75
2021/01/21 06:57:29;;;;;;;3.90;0.70;;;;;;;5.77;100.00;98670.56;1946883;74;26139;-75
2021/01/21 06:59:59;;;;;;;5.20;0.90;;;;;;;5.79;100.00;98670.23;1946710;74;26607;-75
2021/01/21 07:02:46;;;;;;;4.13;0.60;;;;;;;6.01;100.00;98659.89;1946965;74;26209;-78
2021/01/21 07:05:19;;;;;;;2.87;0.70;;;;;;;5.99;100.00;98654.67;1946992;73;26131;-75
2021/01/21 07:08:07;;;;;;;6.30;0.90;;;;;;;5.91;100.00;98652.65;1946876;73;26135;-75
2021/01/21 07:10:44;;;;;;;3.20;0.90;;;;;;;6.09;100.00;98643.44;1946827;74;26621;-75
2021/01/21 07:13:16;;;;;;;4.57;1.20;;;;;;;6.07;100.00;98651.78;1947765;73;26235;-75
2021/01/21 07:15:48;;;;;;;2.53;0.60;;;;;;;6.01;100.00;98653.82;1950190;73;26603;-75
2021/01/21 07:18:21;;;;;;;5.30;1.07;;;;;;;6.00;100.00;98649.98;1950155;73;26688;-75
2021/01/21 07:21:10;;;;;;;3.70;0.70;;;;;;;6.02;100.00;98647.75;1950122;73;26254;-75
2021/01/21 07:23:52;;;;;;;1.37;0.70;;;;;;;6.10;100.00;98646.45;1950091;73;26321;-75
2021/01/21 07:26:31;;;;;;;4.67;1.17;;;;;;;6.01;100.00;98653.82;1950122;73;26249;-75
2021/01/21 07:29:07;;;;;;;4.30;1.27;;;;;;;6.01;100.00;98657.95;1950319;73;26167;-74
2021/01/21 07:32:09;;;;;;;2.80;0.90;;;;;;;6.06;100.00;98668.87;1950172;73;26262;-76
2021/01/21 07:34:49;;;;;;;3.63;0.70;;;;;;;5.99;100.00;98680.06;1950111;73;26183;-76
2021/01/21 07:37:30;;;;;;;3.93;0.90;;;;;;;5.93;100.00;98680.16;1950086;73;26241;-77
2021/01/21 07:40:07;;;;;;;4.20;0.80;;;;;;;5.96;100.00;98684.23;1950080;73;26330;-76
2021/01/21 07:42:56;;;;;;;4.50;1.00;;;;;;;6.02;100.00;98688.52;1950161;73;26234;-76
2021/01/21 07:45:31;;;;;;;5.33;1.90;;;;;;;6.04;100.00;98677.17;1950328;73;26668;-76
2021/01/21 07:48:24;;;;;;;3.20;0.80;;;;;;;5.99;100.00;98698.76;1950102;73;26155;-75
2021/01/21 07:50:54;;;;;;;2.47;0.70;;;;;;;5.97;100.00;98684.48;1950216;73;26314;-76
2021/01/21 07:53:27;;;;;;;7.33;0.93;;;;;;;6.01;100.00;98694.33;1949940;73;26606;-76
2021/01/21 07:55:59;;;;;;;5.63;1.77;;;;;;;6.11;100.00;98688.05;1950062;73;26582;-76
2021/01/21 07:58:35;;;;;;;3.27;0.90;;;;;;;6.06;100.00;98701.94;1949767;72;26197;-74
2021/01/21 08:01:08;;;;;;;2.77;0.70;;;;;;;6.06;100.00;98699.18;1949931;72;26221;-75
2021/01/21 08:03:40;;;;;;;6.67;1.23;;;;;;;6.13;100.00;98692.68;1950152;73;26167;-77
2021/01/21 08:06:12;;;;;;;3.53;1.13;;;;;;;6.04;100.00;98700.59;1950203;73;26248;-75
2021/01/21 08:08:44;;;;;;;3.33;0.83;;;;;;;6.08;100.00;98701.61;1950329;73;26248;-77
2021/01/21 08:11:17;;;;;;;2.07;0.87;;;;;;;6.07;100.00;98700.00;1950099;73;26147;-77
2021/01/21 08:13:47;;;;;;;2.67;0.67;;;;;;;6.03;100.00;98713.58;1948230;72;26277;-77
2021/01/21 08:16:19;;;;;;;5.43;1.10;;;;;;;6.01;100.00;98692.39;1946983;74;26225;-76
2021/01/21 08:18:49;;;;;;;2.17;1.13;;;;;;;6.08;100.00;98692.78;1947066;74;26131;-78
2021/01/21 08:21:26;;;;;;;4.43;1.00;;;;;;;6.16;100.00;98687.92;1946865;74;26143;-76
2021/01/21 08:23:58;;;;;;;4.03;1.10;;;;;;;6.17;100.00;98689.56;1946758;73;26248;-75
2021/01/21 08:26:29;;;;;;;5.13;0.90;;;;;;;6.17;100.00;98703.34;1946773;74;26280;-78
2021/01/21 08:29:00;;;;;;;3.60;1.07;;;;;;;6.30;100.00;98694.23;1946940;74;26136;-81
2021/01/21 08:31:37;;;;;;;3.93;1.37;;;;;;;6.39;100.00;98686.04;1947061;74;26151;-78
2021/01/21 08:34:10;;;;;;;3.63;1.90;;;;;;;6.33;100.00;98693.59;1946941;74;26668;-76
2021/01/21 08:36:41;;;;;;;2.70;1.10;;;;;;;6.47;100.00;98692.75;1947330;74;26196;-78
2021/01/21 08:39:13;;;;;;;4.67;0.80;;;;;;;6.52;100.00;98689.32;1946952;74;26256;-79
2021/01/21 08:41:45;;;;;;;3.33;1.00;;;;;;;6.58;100.00;98690.03;1946933;74;26143;-77
2021/01/21 08:44:18;;;;;;;3.07;0.90;;;;;;;6.59;100.00;98684.18;1947032;73;26135;-77
2021/01/21 08:46:59;;;;;;;6.53;1.03;;;;;;;6.72;100.00;98699.05;1946923;74;26159;-80
2021/01/21 08:49:34;;;;;;;4.00;1.30;;;;;;;6.70;100.00;98697.17;1946970;74;26209;-79
2021/01/21 08:52:11;;;;;;;6.63;0.90;;;;;;;6.81;100.00;98699.93;1946494;72;26143;-78
2021/01/21 08:54:53;;;;;;;3.37;0.90;;;;;;;6.82;100.00;98701.57;1946905;74;26273;-82
2021/01/21 08:57:24;;;;;;;3.83;0.80;;;;;;;6.88;100.00;98705.03;1947010;74;26318;-78
2021/01/21 08:59:54;;;;;;;1.97;0.73;;;;;;;6.90;100.00;98715.99;1946936;74;26546;-74
2021/01/21 09:02:45;;;;;;;3.43;1.27;;;;;;;6.95;100.00;98708.16;1947138;73;26642;-78
2021/01/21 09:05:15;;;;;;;2.40;1.00;;;;;;;6.94;100.00;98703.20;1947009;73;26238;-81
2021/01/21 09:07:45;;;;;;;4.77;1.20;;;;;;;6.98;100.00;98722.14;1946997;74;26147;-77
2021/01/21 09:10:18;;;;;;;3.30;1.03;;;;;;;7.00;100.00;98701.14;1946884;74;26605;-77
2021/01/21 09:13:03;;;;;;;6.30;0.90;;;;;;;6.99;100.00;98705.02;1946978;73;26653;-78
2021/01/21 09:15:55;;;;;;;6.70;1.70;;;;;;;7.08;100.00;98708.09;1946708;72;26187;-78
2021/01/21 09:18:27;;;;;;;3.70;1.10;;;;;;;7.21;100.00;98720.19;1946990;74;26265;-77
2021/01/21 09:21:17;;;;;;;5.20;1.10;;;;;;;7.09;100.00;98715.81;1946958;74;26574;-78
2021/01/21 09:24:04;;;;;;;3.73;0.90;;;;;;;7.14;100.00;98712.37;1946886;74;26716;-78
2021/01/21 09:26:34;;;;;;;3.60;0.90;;;;;;;7.08;100.00;98713.62;1946807;74;26293;-78
2021/01/21 09:29:05;;;;;;;5.30;1.33;;;;;;;7.11;100.00;98708.84;1947000;73;26656;-77
2021/01/21 09:31:35;;;;;;;3.47;1.00;;;;;;;7.10;100.00;98707.80;1946992;74;26220;-78
2021/01/21 09:34:04;;;;;;;5.90;1.40;;;;;;;7.11;100.00;98708.84;1946911;73;26143;-80
2021/01/21 09:36:34;;;;;;;6.73;1.60;;;;;;;7.19;100.00;98710.84;1946957;73;26208;-77
2021/01/21 09:39:05;;;;;;;5.60;1.40;;;;;;;7.21;100.00;98709.16;1946880;74;26140;-78
2021/01/21 09:41:36;;;;;;;5.67;2.00;;;;;;;7.31;100.00;98718.00;1947172;74;26248;-79
2021/01/21 09:44:06;;;;;;;7.73;1.17;;;;;;;7.38;100.00;98718.10;1946892;74;26147;-78
2021/01/21 09:46:39;;;;;;;7.40;1.43;;;;;;;7.71;100.00;98719.41;1946998;74;26143;-78
2021/01/21 09:49:09;;;;;;;3.47;0.90;;;;;;;10.87;100.00;98719.22;1946990;74;26131;-80
2021/01/21 09:51:39;;;;;;;3.33;0.90;;;;;;;8.92;100.00;98716.36;1946909;74;26205;-77
2021/01/21 09:54:09;;;;;;;4.27;0.80;;;;;;;7.77;100.00;98714.81;1946902;73;26582;-77
2021/01/21 09:56:39;;;;;;;3.63;1.00;;;;;;;7.60;100.00;98720.27;1946872;74;26578;-77
2021/01/21 09:59:10;;;;;;;4.63;1.13;;;;;;;7.69;100.00;98718.92;1947144;73;26238;-76
2021/01/21 10:01:40;;;;;;;3.87;0.73;;;;;;;7.56;100.00;98724.80;1947026;73;26144;-75
2021/01/21 10:04:10;;;;;;;4.23;1.00;;;;;;;7.67;100.00;98726.70;1947052;74;26578;-76
2021/01/21 10:06:40;;;;;;;5.27;0.90;;;;;;;7.71;100.00;98719.41;1947021;74;26626;-80
2021/01/21 10:09:10;;;;;;;3.53;0.80;;;;;;;7.62;100.00;98733.73;1946954;74;26221;-78
2021/01/21 10:11:40;;;;;;;2.10;0.90;;;;;;;7.61;100.00;98737.09;1947015;74;26566;-76
2021/01/21 10:14:11;;;;;;;3.50;1.10;;;;;;;7.46;100.00;98731.95;1947055;74;26135;-77
2021/01/21 10:16:41;;;;;;;2.73;0.90;;;;;;;7.62;100.00;98746.17;1949773;73;26315;-77
2021/01/21 10:19:11;;;;;;;3.37;0.93;;;;;;;7.67;100.00;98744.66;1950204;73;26692;-76
2021/01/21 10:21:42;;;;;;;7.57;1.10;;;;;;;7.75;100.00;98741.12;1949899;73;26579;-78
2021/01/21 10:24:12;;;;;;;2.70;0.50;;;;;;;7.87;100.00;98755.74;1950157;73;26251;-77
2021/01/21 10:26:42;;;;;;;2.73;0.70;;;;;;;7.79;100.00;98752.59;1949263;73;26285;-79
2021/01/21 10:29:12;;;;;;;2.60;0.80;;;;;;;7.76;100.00;98751.05;1950152;73;26327;-79
2021/01/21 10:31:42;;;;;;;2.63;0.87;;;;;;;7.84;100.00;98745.30;1950236;73;26191;-78
2021/01/21 10:34:12;;;;;;;6.27;0.80;;;;;;;7.93;100.00;98747.54;1949809;73;26238;-77
2021/01/21 10:36:42;;;;;;;2.63;1.30;;;;;;;7.99;100.00;98746.27;1949383;73;26691;-77
2021/01/21 10:39:11;;;;;;;3.20;0.87;;;;;;;8.00;100.00;98747.31;1950173;73;26194;-78
2021/01/21 10:41:41;;;;;;;4.13;0.70;;;;;;;7.97;100.00;98740.23;1950439;73;26244;-76
2021/01/21 10:44:11;;;;;;;2.63;0.90;;;;;;;8.01;100.00;98736.52;1950093;73;26164;-78
2021/01/21 10:46:41;;;;;;;3.50;1.33;;;;;;;8.00;100.00;98747.91;1950402;73;26176;-75
2021/01/21 10:49:11;;;;;;;2.47;0.80;;;;;;;8.01;100.00;98751.72;1949854;73;26179;-75
2021/01/21 10:51:41;;;;;;;4.67;0.70;;;;;;;8.14;100.00;98752.73;1950216;73;26176;-77
2021/01/21 10:54:11;;;;;;;1.90;0.60;;;;;;;8.08;100.00;98743.80;1950368;73;26164;-76
2021/01/21 10:56:41;;;;;;;1.33;0.60;;;;;;;8.14;100.00;98749.41;1950247;73;26171;-75
2021/01/21 10:59:11;;;;;;;3.80;1.00;;;;;;;8.03;100.00;98753.61;1949438;73;26218;-76
2021/01/21 11:01:41;;;;;;;2.70;0.73;;;;;;;8.12;100.00;98753.08;1950365;73;26233;-80
2021/01/21 11:04:11;;;;;;;1.20;0.50;;;;;;;8.04;100.00;98745.57;1949582;73;26713;-78
2021/01/21 11:06:41;;;;;;;4.47;0.90;;;;;;;8.09;100.00;98745.97;1949776;73;26230;-78
2021/01/21 11:09:11;;;;;;;2.63;0.60;;;;;;;8.15;100.00;98746.08;1950116;73;26143;-78
2021/01/21 11:11:41;;;;;;;3.67;0.87;;;;;;;8.15;100.00;98744.70;1950167;73;26200;-79
2021/01/21 11:14:11;;;;;;;2.67;0.70;;;;;;;8.05;100.00;98744.41;1950306;73;26237;-78
2021/01/21 11:16:41;;;;;;;3.33;0.73;;;;;;;8.06;100.00;98752.96;1949964;73;26184;-79
2021/01/21 11:19:11;;;;;;;3.03;0.97;;;;;;;8.04;100.00;98753.87;1950034;73;26245;-77
2021/01/21 11:21:44;;;;;;;3.30;1.00;;;;;;;8.32;100.00;98742.58;1949882;73;26257;-78
2021/01/21 11:24:13;;;;;;;2.33;0.73;;;;;;;8.23;100.00;98744.73;1950016;73;26677;-78
2021/01/21 11:26:44;;;;;;;3.40;0.70;;;;;;;8.40;100.00;98752.84;1949968;73;26200;-76
2021/01/21 11:29:14;;;;;;;3.23;0.80;;;;;;;8.31;100.00;98751.44;1949853;73;26281;-76
2021/01/21 11:31:44;;;;;;;5.03;0.83;;;;;;;8.31;100.00;98753.38;1950021;73;26221;-76
2021/01/21 11:34:14;;;;;;;3.53;0.70;;;;;;;8.30;100.00;98744.27;1949632;73;26234;-76
2021/01/21 11:36:44;;;;;;;7.93;1.33;;;;;;;8.31;100.00;98746.47;1949999;73;26248;-76
2021/01/21 11:39:14;;;;;;;5.87;1.00;;;;;;;8.45;100.00;98737.48;1949870;73;26245;-77
2021/01/21 11:41:44;;;;;;;3.40;0.57;;;;;;;8.34;100.00;98736.17;1950087;73;26171;-76
2021/01/21 11:44:14;;;;;;;3.00;0.90;;;;;;;8.32;100.00;98717.12;1949887;73;26233;-77
2021/01/21 11:46:44;;;;;;;4.53;0.90;;;;;;;8.49;100.00;98728.78;1949913;73;26160;-76
2021/01/21 11:49:14;;;;;;;6.53;1.27;;;;;;;8.54;100.00;98728.63;1949950;73;26183;-77
2021/01/21 11:51:44;;;;;;;3.70;0.83;;;;;;;8.58;100.00;98732.38;1949928;73;26250;-76
2021/01/21 11:54:14;;;;;;;3.20;0.90;;;;;;;8.63;100.00;98730.84;1949906;73;26135;-76
2021/01/21 11:56:44;;;;;;;4.03;1.00;;;;;;;8.61;100.00;98736.69;1949886;73;26611;-76